Time;durP1;ratioP1;P1;durP2;ratioP2;P2;SDS_P1;SDS_P2;PMS_P1;PMS_P2;Temp;Humidity;BMP_temperature;BMP_pressure;BME280_temperature;BME280_humidity;BME280_pressure;Samples;Min_cycle;Max_cycle;Signal;HPM_P1;HPM_P2
2021/04/08 00:02:07;;;;;;;5.70;4.47;;;2.20;99.90;;;;;;4973876;28;20245;-81
2021/04/08 00:04:32;;;;;;;5.03;4.50;;;2.20;99.90;;;;;;4946580;28;20474;-81
2021/04/08 00:06:58;;;;;;;6.30;4.00;;;2.20;99.90;;;;;;4956262;28;20776;-81
2021/04/08 00:09:27;;;;;;;9.27;4.47;;;2.30;99.90;;;;;;4975299;28;20387;-81
2021/04/08 00:11:56;;;;;;;6.73;4.40;;;2.20;99.90;;;;;;4953515;28;20234;-82
2021/04/08 00:14:22;;;;;;;3.70;3.30;;;2.30;99.90;;;;;;4958523;28;20536;-82
2021/04/08 00:16:48;;;;;;;4.80;4.20;;;2.30;99.90;;;;;;4955229;28;20771;-82
2021/04/08 00:19:13;;;;;;;6.60;4.00;;;2.30;99.90;;;;;;4956351;28;21024;-82
2021/04/08 00:21:39;;;;;;;6.23;4.10;;;2.30;99.90;;;;;;4955171;28;20484;-82
2021/04/08 00:24:05;;;;;;;5.57;4.00;;;2.30;99.90;;;;;;4971673;28;20189;-82
2021/04/08 00:26:31;;;;;;;5.67;4.40;;;2.30;99.90;;;;;;4954775;28;20178;-83
2021/04/08 00:28:57;;;;;;;5.53;4.23;;;2.30;99.90;;;;;;4969036;28;20481;-83
2021/04/08 00:31:22;;;;;;;5.60;4.30;;;2.30;99.90;;;;;;4963182;28;20190;-83
2021/04/08 00:33:48;;;;;;;6.33;4.40;;;2.30;99.90;;;;;;4963334;28;20907;-83
2021/04/08 00:36:13;;;;;;;7.30;4.60;;;2.20;99.90;;;;;;4952150;28;20622;-83
2021/04/08 00:38:39;;;;;;;5.73;4.33;;;2.00;99.90;;;;;;4982753;28;20492;-81
2021/04/08 00:41:05;;;;;;;8.03;4.80;;;1.90;99.90;;;;;;4973632;28;20244;-82
2021/04/08 00:43:30;;;;;;;9.43;5.17;;;1.90;99.90;;;;;;4951703;28;20567;-81
2021/04/08 00:45:59;;;;;;;7.30;5.40;;;1.90;99.90;;;;;;4961207;28;20232;-81
2021/04/08 00:48:25;;;;;;;6.13;5.37;;;1.90;99.90;;;;;;4965980;28;20337;-81
2021/04/08 00:50:56;;;;;;;6.37;5.53;;;1.90;99.90;;;;;;4976074;28;20433;-81
2021/04/08 00:53:25;;;;;;;7.47;5.30;;;1.90;99.90;;;;;;4973586;28;20489;-81
2021/04/08 00:55:55;;;;;;;7.53;4.93;;;1.90;99.90;;;;;;4956401;28;20722;-82
2021/04/08 00:58:22;;;;;;;9.20;5.87;;;1.80;99.90;;;;;;4969400;28;20452;-81
2021/04/08 01:00:48;;;;;;;10.23;5.20;;;1.80;99.90;;;;;;4965806;28;20443;-81
2021/04/08 01:03:15;;;;;;;8.23;4.97;;;1.80;99.90;;;;;;4948186;28;20465;-82
2021/04/08 01:05:41;;;;;;;7.27;5.40;;;1.80;99.90;;;;;;4964705;28;20464;-81
2021/04/08 01:08:07;;;;;;;7.03;5.00;;;1.80;99.90;;;;;;4965253;28;20485;-81
2021/04/08 01:10:33;;;;;;;6.07;4.97;;;1.80;99.90;;;;;;4951329;28;20225;-81
2021/04/08 01:13:03;;;;;;;5.83;5.07;;;1.90;99.90;;;;;;4972037;28;20523;-81
2021/04/08 01:15:30;;;;;;;5.53;4.83;;;1.80;99.90;;;;;;4955893;28;20448;-82
2021/04/08 01:18:14;;;;;;;7.33;4.10;;;1.80;99.90;;;;;;4946579;28;20489;-82
2021/04/08 01:21:03;;;;;;;8.70;5.27;;;1.90;99.90;;;;;;4953636;28;20922;-81
2021/04/08 01:23:32;;;;;;;6.13;5.53;;;1.90;99.90;;;;;;4963241;28;20440;-81
2021/04/08 01:26:03;;;;;;;7.20;5.70;;;1.90;99.90;;;;;;4955581;28;20437;-81
2021/04/08 01:28:36;;;;;;;7.53;5.37;;;1.90;99.90;;;;;;4967234;28;20923;-83
2021/04/08 01:31:05;;;;;;;8.73;5.80;;;1.90;99.90;;;;;;4973363;28;20451;-82
2021/04/08 01:33:41;;;;;;;7.13;5.50;;;1.90;99.90;;;;;;4973283;28;20773;-81
2021/04/08 01:36:20;;;;;;;6.47;5.80;;;1.90;99.90;;;;;;4952722;28;20539;-81
2021/04/08 01:38:59;;;;;;;8.23;5.90;;;1.90;99.90;;;;;;4977114;28;20536;-82
2021/04/08 01:41:25;;;;;;;7.60;6.20;;;2.00;99.90;;;;;;4978219;28;20933;-81
2021/04/08 01:43:56;;;;;;;8.63;5.43;;;2.00;99.90;;;;;;4969063;28;21083;-81
2021/04/08 01:46:25;;;;;;;7.13;6.23;;;1.90;99.90;;;;;;4954360;28;20457;-82
2021/04/08 01:48:53;;;;;;;7.90;5.17;;;1.90;99.90;;;;;;4972086;28;20775;-82
2021/04/08 01:51:21;;;;;;;7.53;5.83;;;1.80;99.90;;;;;;4956156;28;20486;-81
2021/04/08 01:53:50;;;;;;;8.80;5.60;;;1.80;99.90;;;;;;4956625;28;20454;-81
2021/04/08 01:56:21;;;;;;;5.93;5.40;;;1.70;99.90;;;;;;4970967;28;20488;-80
2021/04/08 01:58:48;;;;;;;8.07;5.40;;;1.70;99.90;;;;;;4971169;28;20449;-81
2021/04/08 02:01:17;;;;;;;8.67;6.13;;;1.70;99.90;;;;;;4975431;28;20538;-81
2021/04/08 02:03:43;;;;;;;7.47;5.70;;;1.70;99.90;;;;;;4954451;28;20921;-81
2021/04/08 02:06:10;;;;;;;6.40;5.23;;;1.80;99.90;;;;;;4972691;28;20436;-80
2021/04/08 02:08:39;;;;;;;7.83;5.57;;;1.90;99.90;;;;;;4974296;28;20832;-80
2021/04/08 02:11:08;;;;;;;5.87;4.70;;;1.90;99.90;;;;;;4972307;28;20448;-81
2021/04/08 02:13:34;;;;;;;7.53;4.13;;;1.90;99.90;;;;;;4957272;28;20644;-80
2021/04/08 02:16:01;;;;;;;4.80;4.30;;;2.10;99.90;;;;;;4977281;28;20452;-81
2021/04/08 02:18:29;;;;;;;5.20;4.70;;;2.20;99.90;;;;;;4957177;28;20706;-81
2021/04/08 02:20:58;;;;;;;3.00;2.70;;;2.30;99.90;;;;;;4960032;28;20441;-81
2021/04/08 02:23:26;;;;;;;4.37;3.97;;;2.30;99.90;;;;;;4978098;28;20452;-81
2021/04/08 02:25:54;;;;;;;7.67;4.00;;;2.40;99.90;;;;;;4968974;28;20896;-81
2021/04/08 02:28:21;;;;;;;4.83;4.10;;;2.40;99.90;;;;;;4971736;28;20531;-81
2021/04/08 02:30:51;;;;;;;7.23;4.30;;;2.40;99.90;;;;;;4971421;28;20454;-82
2021/04/08 02:33:28;;;;;;;6.97;4.27;;;2.40;99.90;;;;;;4957560;28;20437;-81
2021/04/08 02:35:55;;;;;;;5.20;4.07;;;2.40;99.90;;;;;;4960173;28;20437;-81
2021/04/08 02:38:22;;;;;;;4.90;4.40;;;2.40;99.90;;;;;;4975086;28;20440;-81
2021/04/08 02:40:48;;;;;;;4.70;3.87;;;2.50;99.90;;;;;;4971053;28;21028;-81
2021/04/08 02:43:14;;;;;;;3.83;3.00;;;2.50;99.90;;;;;;4971188;28;20449;-82
2021/04/08 02:45:40;;;;;;;4.50;2.87;;;2.50;99.90;;;;;;4973781;28;20218;-82
2021/04/08 02:48:12;;;;;;;3.90;3.60;;;2.50;99.90;;;;;;4973103;28;20619;-83
2021/04/08 02:50:43;;;;;;;4.03;3.63;;;2.40;99.90;;;;;;4955254;28;20438;-82
2021/04/08 02:53:20;;;;;;;3.23;2.73;;;2.40;99.90;;;;;;4955525;28;20444;-82
2021/04/08 02:55:55;;;;;;;3.63;3.33;;;2.40;99.90;;;;;;4976716;28;20448;-82
2021/04/08 02:58:24;;;;;;;2.73;2.53;;;2.30;99.90;;;;;;4970917;28;20527;-82
2021/04/08 03:01:05;;;;;;;4.60;3.60;;;2.30;99.90;;;;;;4960964;28;20966;-82
2021/04/08 03:03:36;;;;;;;3.07;2.80;;;2.30;99.90;;;;;;4973391;28;20528;-82
2021/04/08 03:06:07;;;;;;;4.30;2.97;;;2.30;99.90;;;;;;4958788;28;20437;-83
2021/04/08 03:08:35;;;;;;;4.53;3.40;;;2.30;99.90;;;;;;4973056;28;20529;-83
2021/04/08 03:11:07;;;;;;;3.67;3.37;;;2.30;99.90;;;;;;4971675;28;20453;-82
2021/04/08 03:13:36;;;;;;;4.10;3.13;;;2.30;99.90;;;;;;4968954;28;20462;-81
2021/04/08 03:16:05;;;;;;;5.73;3.80;;;2.20;99.90;;;;;;4967644;28;21015;-81
2021/04/08 03:18:32;;;;;;;5.40;3.00;;;2.20;99.90;;;;;;4976564;28;20573;-81
2021/04/08 03:20:59;;;;;;;5.93;4.00;;;2.20;99.90;;;;;;4958999;28;20495;-81
2021/04/08 03:23:25;;;;;;;3.77;2.80;;;2.30;99.90;;;;;;4946097;28;20445;-82
2021/04/08 03:25:53;;;;;;;3.90;2.97;;;2.30;99.90;;;;;;4986935;28;20460;-81
2021/04/08 03:28:20;;;;;;;4.70;3.63;;;2.30;99.90;;;;;;4955105;28;20493;-82
2021/04/08 03:30:47;;;;;;;4.17;3.77;;;2.20;99.90;;;;;;4969820;28;20449;-81
2021/04/08 03:33:14;;;;;;;4.33;3.50;;;2.20;99.90;;;;;;4956083;28;20462;-81
2021/04/08 03:35:45;;;;;;;6.33;2.90;;;2.20;99.90;;;;;;4970068;28;20437;-83
2021/04/08 03:38:11;;;;;;;5.70;3.83;;;2.20;99.90;;;;;;4952402;28;20461;-82
2021/04/08 03:40:37;;;;;;;3.17;2.60;;;2.20;99.90;;;;;;4971732;28;20993;-82
2021/04/08 03:43:04;;;;;;;3.37;3.07;;;2.20;99.90;;;;;;4971358;28;20197;-82
2021/04/08 03:45:30;;;;;;;3.30;3.00;;;2.30;99.90;;;;;;4956277;28;20575;-82
2021/04/08 03:48:00;;;;;;;2.40;2.20;;;2.20;99.90;;;;;;4973492;28;20503;-82
2021/04/08 03:50:28;;;;;;;3.63;2.90;;;2.20;99.90;;;;;;4956806;28;20252;-82
2021/04/08 03:52:55;;;;;;;3.93;3.10;;;2.20;99.90;;;;;;4956231;28;20564;-82
2021/04/08 03:55:22;;;;;;;3.73;2.73;;;2.20;99.90;;;;;;4972921;28;20441;-81
2021/04/08 03:57:50;;;;;;;3.13;2.83;;;2.20;99.90;;;;;;4940364;28;20773;-82
2021/04/08 04:00:16;;;;;;;3.30;2.30;;;2.20;99.90;;;;;;4970536;28;20448;-82
2021/04/08 04:02:43;;;;;;;4.13;2.33;;;2.20;99.90;;;;;;4971429;28;20444;-81
2021/04/08 04:05:10;;;;;;;4.00;2.97;;;2.20;99.90;;;;;;4959674;28;20448;-81
2021/04/08 04:07:38;;;;;;;2.80;2.60;;;2.20;99.90;;;;;;4956136;28;20472;-82
2021/04/08 04:10:04;;;;;;;3.03;2.73;;;2.20;99.90;;;;;;4975791;28;21415;-82
2021/04/08 04:12:33;;;;;;;3.63;2.77;;;2.20;99.90;;;;;;4967410;28;20446;-81
2021/04/08 04:15:02;;;;;;;4.30;2.57;;;2.20;99.90;;;;;;4953184;28;20542;-82
2021/04/08 04:17:31;;;;;;;5.17;3.30;;;2.20;99.90;;;;;;4970431;28;20887;-82
2021/04/08 04:19:58;;;;;;;3.90;2.70;;;2.20;99.90;;;;;;4957580;28;20843;-82
2021/04/08 04:22:24;;;;;;;3.47;2.43;;;2.10;99.90;;;;;;4955794;28;20539;-81
2021/04/08 04:24:50;;;;;;;5.43;2.67;;;2.20;99.90;;;;;;4967368;28;20434;-82
2021/04/08 04:27:15;;;;;;;3.40;2.50;;;2.20;99.90;;;;;;4959600;28;20485;-82
2021/04/08 04:29:42;;;;;;;7.00;3.00;;;2.20;99.90;;;;;;4973335;28;20483;-82
2021/04/08 04:32:11;;;;;;;2.80;2.60;;;2.20;99.90;;;;;;4957427;28;20516;-82
2021/04/08 04:34:40;;;;;;;2.70;2.50;;;2.20;99.90;;;;;;4956770;28;20861;-82
2021/04/08 04:37:06;;;;;;;2.77;2.40;;;2.20;99.90;;;;;;4957128;28;20855;-83
2021/04/08 04:39:32;;;;;;;2.43;2.23;;;2.10;99.90;;;;;;4943562;28;20460;-83
2021/04/08 04:41:58;;;;;;;4.10;2.40;;;2.20;99.90;;;;;;4960161;28;20971;-82
2021/04/08 04:44:24;;;;;;;4.23;2.23;;;2.10;99.90;;;;;;4946894;28;20197;-82
2021/04/08 04:46:53;;;;;;;3.60;2.50;;;2.10;99.90;;;;;;4959114;28;20213;-82
2021/04/08 04:49:19;;;;;;;5.90;2.30;;;2.20;99.90;;;;;;4959275;28;20448;-82
2021/04/08 04:51:45;;;;;;;2.97;2.67;;;2.20;99.90;;;;;;4969228;28;21365;-82
2021/04/08 04:54:10;;;;;;;2.60;2.40;;;2.20;99.90;;;;;;4961129;28;20217;-83
2021/04/08 04:56:36;;;;;;;2.97;2.50;;;2.10;99.90;;;;;;4954623;28;20182;-83
2021/04/08 04:59:02;;;;;;;3.43;2.40;;;2.10;99.90;;;;;;4971805;28;20206;-83
2021/04/08 05:01:28;;;;;;;5.37;2.30;;;2.20;99.90;;;;;;4974776;28;20197;-82
2021/04/08 05:03:53;;;;;;;3.73;3.33;;;2.10;99.90;;;;;;4970757;28;20551;-82
2021/04/08 05:06:22;;;;;;;3.80;2.43;;;2.10;99.90;;;;;;4975094;28;20439;-82
2021/04/08 05:08:47;;;;;;;5.87;2.97;;;2.10;99.90;;;;;;4976710;28;20481;-83
2021/04/08 05:11:13;;;;;;;5.97;3.70;;;2.10;99.90;;;;;;4977939;28;20447;-84
2021/04/08 05:13:39;;;;;;;4.50;3.20;;;2.10;99.90;;;;;;4974198;28;20587;-83
2021/04/08 05:16:05;;;;;;;5.97;2.80;;;2.10;99.90;;;;;;4977205;28;20661;-83
2021/04/08 05:18:33;;;;;;;6.00;2.83;;;2.20;99.90;;;;;;4978349;28;20201;-83
2021/04/08 05:20:59;;;;;;;4.20;2.50;;;2.10;99.90;;;;;;4978139;28;20801;-83
2021/04/08 05:23:25;;;;;;;4.20;2.80;;;2.10;99.90;;;;;;4978153;28;20448;-83
2021/04/08 05:25:51;;;;;;;3.97;2.90;;;2.20;99.90;;;;;;4973359;28;20264;-83
2021/04/08 05:28:17;;;;;;;7.60;3.20;;;2.30;99.90;;;;;;4977875;28;20225;-83
2021/04/08 05:30:43;;;;;;;3.90;3.20;;;2.30;99.90;;;;;;4974388;28;20995;-82
2021/04/08 05:33:09;;;;;;;3.80;3.20;;;2.40;99.90;;;;;;4975228;28;20189;-84
2021/04/08 05:35:35;;;;;;;3.83;3.53;;;2.40;99.90;;;;;;4960614;28;20784;-83
2021/04/08 05:38:01;;;;;;;7.60;4.57;;;2.40;99.90;;;;;;4954216;28;20456;-83
2021/04/08 05:40:26;;;;;;;5.70;4.67;;;2.40;99.90;;;;;;4975442;28;20820;-83
2021/04/08 05:42:52;;;;;;;4.97;4.47;;;2.50;99.90;;;;;;4957802;28;20201;-83
2021/04/08 05:45:19;;;;;;;2.97;2.77;;;2.50;99.90;;;;;;4975996;28;20189;-84
2021/04/08 05:47:46;;;;;;;3.37;2.50;;;2.50;99.90;;;;;;4973651;28;20257;-83
2021/04/08 05:50:13;;;;;;;5.70;2.47;;;2.60;99.90;;;;;;4977714;28;20827;-84
2021/04/08 05:52:39;;;;;;;8.07;3.10;;;2.60;99.90;;;;;;4971265;28;20446;-84
2021/04/08 05:55:06;;;;;;;4.57;3.00;;;2.70;99.90;;;;;;4976917;28;20624;-84
2021/04/08 05:57:32;;;;;;;5.30;3.60;;;2.70;99.90;;;;;;4957369;28;20191;-84
2021/04/08 05:59:58;;;;;;;3.60;3.20;;;2.80;99.90;;;;;;4958525;28;20440;-84
2021/04/08 06:02:29;;;;;;;3.43;3.07;;;2.80;99.90;;;;;;4977111;28;20804;-83
2021/04/08 06:04:54;;;;;;;8.50;2.63;;;2.80;99.90;;;;;;4958101;28;20525;-84
2021/04/08 06:07:20;;;;;;;4.50;2.47;;;2.90;99.90;;;;;;4975186;28;20476;-83
2021/04/08 06:09:46;;;;;;;4.53;2.80;;;3.00;99.90;;;;;;4960241;28;20193;-83
2021/04/08 06:12:11;;;;;;;5.23;2.50;;;3.10;99.90;;;;;;4975404;28;20208;-83
2021/04/08 06:14:40;;;;;;;6.20;2.53;;;3.20;99.90;;;;;;4975696;28;20308;-83
2021/04/08 06:17:06;;;;;;;5.60;3.00;;;3.40;99.90;;;;;;4974161;28;20292;-83
2021/04/08 06:19:32;;;;;;;4.27;3.30;;;3.40;99.90;;;;;;4979916;28;20544;-83
2021/04/08 06:21:59;;;;;;;6.30;3.30;;;3.30;99.90;;;;;;4979280;28;20610;-84
2021/04/08 06:24:25;;;;;;;6.00;3.07;;;3.40;99.90;;;;;;4965520;28;20455;-84
2021/04/08 06:26:58;;;;;;;4.40;3.10;;;3.30;99.90;;;;;;4981351;28;20978;-85
2021/04/08 06:29:24;;;;;;;5.50;2.60;;;3.30;99.90;;;;;;4974550;28;20202;-83
2021/04/08 06:31:49;;;;;;;5.50;3.30;;;3.40;99.90;;;;;;4974432;28;20803;-81
2021/04/08 06:34:16;;;;;;;4.27;3.27;;;3.40;99.90;;;;;;4972382;28;20540;-82
2021/04/08 06:36:42;;;;;;;6.03;3.53;;;3.40;99.90;;;;;;4960324;28;20193;-82
2021/04/08 06:39:10;;;;;;;3.83;3.20;;;3.40;99.90;;;;;;4975633;28;20447;-82
2021/04/08 06:41:37;;;;;;;7.90;3.10;;;3.40;99.90;;;;;;4978805;28;21028;-82
2021/04/08 06:44:06;;;;;;;2.40;2.20;;;3.50;99.90;;;;;;4974553;28;20437;-83
2021/04/08 06:46:40;;;;;;;6.80;2.83;;;3.70;99.90;;;;;;4950065;28;21036;-82
2021/04/08 06:49:18;;;;;;;4.20;2.83;;;3.70;99.90;;;;;;4973314;28;20518;-82
2021/04/08 06:51:50;;;;;;;4.30;3.37;;;3.50;99.90;;;;;;4967065;28;20449;-83
2021/04/08 06:54:17;;;;;;;4.93;3.30;;;3.60;99.90;;;;;;4966346;28;20562;-83
2021/04/08 06:56:44;;;;;;;2.50;2.20;;;3.70;99.90;;;;;;4971457;28;20544;-83
2021/04/08 06:59:11;;;;;;;4.63;2.33;;;3.70;99.90;;;;;;4959606;28;20545;-83
2021/04/08 07:01:37;;;;;;;3.70;2.70;;;3.60;99.90;;;;;;4974243;28;20462;-83
2021/04/08 07:04:05;;;;;;;5.57;2.63;;;3.80;99.90;;;;;;4953163;28;20509;-83
2021/04/08 07:06:31;;;;;;;3.90;3.03;;;4.00;99.90;;;;;;4957514;28;20456;-82
2021/04/08 07:09:02;;;;;;;3.50;2.30;;;4.20;99.90;;;;;;4969728;28;21207;-82
2021/04/08 07:11:34;;;;;;;4.33;2.43;;;4.20;99.80;;;;;;4961059;28;20225;-82
2021/04/08 07:14:01;;;;;;;3.40;2.93;;;4.20;99.50;;;;;;4975522;28;20467;-82
2021/04/08 07:16:28;;;;;;;3.63;3.20;;;4.10;99.90;;;;;;4970819;28;20523;-83
2021/04/08 07:18:54;;;;;;;4.97;2.77;;;4.20;99.90;;;;;;4976376;28;20501;-83
2021/04/08 07:21:22;;;;;;;2.70;2.23;;;4.50;99.60;;;;;;4951229;28;20441;-84
2021/04/08 07:24:14;;;;;;;3.03;2.60;;;4.40;98.60;;;;;;4970761;28;20460;-82
2021/04/08 07:26:58;;;;;;;3.53;2.60;;;4.50;98.70;;;;;;4975326;28;20448;-83
2021/04/08 07:29:45;;;;;;;3.50;2.63;;;4.40;98.70;;;;;;4966697;28;20883;-81
2021/04/08 07:32:19;;;;;;;4.10;2.70;;;4.70;98.20;;;;;;4954878;28;20433;-80
2021/04/08 07:34:48;;;;;;;5.87;2.87;;;4.70;98.10;;;;;;4969171;28;20807;-81
2021/04/08 07:37:14;;;;;;;4.07;2.73;;;5.00;98.30;;;;;;4958477;28;21622;-80
2021/04/08 07:39:45;;;;;;;4.40;2.40;;;5.40;97.70;;;;;;4961187;28;21322;-80
2021/04/08 07:42:14;;;;;;;3.83;2.40;;;5.20;98.00;;;;;;4968139;28;20507;-80
2021/04/08 07:45:03;;;;;;;3.87;2.70;;;5.20;97.30;;;;;;4974103;28;20807;-80
2021/04/08 07:50:24;;;;;;;8.70;3.07;;;5.50;96.60;;;;;;4960838;28;20606;-79
2021/04/08 07:52:50;;;;;;;4.00;3.60;;;5.50;95.80;;;;;;4966686;28;20495;-80
2021/04/08 07:55:20;;;;;;;5.30;3.80;;;5.40;96.10;;;;;;4946849;28;20690;-84
2021/04/08 07:57:49;;;;;;;4.00;2.83;;;5.40;96.50;;;;;;4957759;28;20440;-80
2021/04/08 08:00:34;;;;;;;4.40;3.37;;;5.20;96.30;;;;;;4973232;28;20811;-80
2021/04/08 08:03:06;;;;;;;5.90;3.83;;;4.80;95.70;;;;;;4970111;28;20995;-81
2021/04/08 08:05:36;;;;;;;3.63;3.33;;;5.10;96.30;;;;;;4967856;28;20911;-81
2021/04/08 08:08:20;;;;;;;4.50;3.40;;;4.90;95.60;;;;;;4961496;28;20716;-79
2021/04/08 08:11:05;;;;;;;6.07;3.80;;;4.80;96.20;;;;;;4969176;28;20520;-81
2021/04/08 08:13:36;;;;;;;7.07;4.00;;;4.70;96.50;;;;;;4960382;28;20630;-79
2021/04/08 08:16:05;;;;;;;7.53;4.67;;;5.10;96.60;;;;;;4973941;28;20429;-80
2021/04/08 08:18:33;;;;;;;6.27;3.87;;;5.00;95.10;;;;;;4946778;28;21083;-79
2021/04/08 08:21:11;;;;;;;5.30;3.63;;;4.90;94.90;;;;;;4987645;28;20476;-80
2021/04/08 08:24:04;;;;;;;6.90;3.80;;;5.20;95.10;;;;;;4974673;28;20557;-80
2021/04/08 08:26:42;;;;;;;4.87;4.00;;;5.10;94.40;;;;;;4974469;28;20469;-80
2021/04/08 08:29:15;;;;;;;7.77;3.70;;;4.90;94.50;;;;;;4990220;28;20571;-80
2021/04/08 08:31:51;;;;;;;7.17;3.80;;;5.10;94.70;;;;;;4969953;28;20811;-80
2021/04/08 08:34:31;;;;;;;4.00;3.37;;;5.00;93.60;;;;;;4954441;28;20539;-80
2021/04/08 08:36:59;;;;;;;3.37;3.00;;;5.20;94.10;;;;;;4947118;28;20960;-80
2021/04/08 08:39:29;;;;;;;7.00;3.60;;;5.50;94.40;;;;;;4944123;28;20454;-80
2021/04/08 08:41:59;;;;;;;7.53;2.80;;;6.00;93.80;;;;;;4967727;28;20454;-80
2021/04/08 08:44:25;;;;;;;5.70;3.50;;;6.00;92.70;;;;;;4963683;28;20506;-80
2021/04/08 08:47:14;;;;;;;4.13;3.77;;;6.20;93.30;;;;;;4974674;28;20783;-80
2021/04/08 08:49:48;;;;;;;3.80;3.03;;;6.00;92.30;;;;;;4973839;28;20475;-80
2021/04/08 08:52:20;;;;;;;5.03;3.63;;;5.60;92.60;;;;;;4974109;28;20449;-80
2021/04/08 08:54:59;;;;;;;3.93;3.03;;;5.70;94.20;;;;;;4973801;28;20447;-80
2021/04/08 08:57:27;;;;;;;4.90;3.63;;;6.10;93.20;;;;;;4977304;28;20885;-80
2021/04/08 08:59:54;;;;;;;3.87;3.50;;;6.00;93.10;;;;;;4975608;28;20443;-80
2021/04/08 09:02:22;;;;;;;5.87;3.77;;;5.80;91.80;;;;;;4958556;28;20444;-80
2021/04/08 09:04:47;;;;;;;4.10;3.70;;;5.80;92.30;;;;;;4973527;28;20511;-81
2021/04/08 09:07:15;;;;;;;4.87;3.30;;;6.00;91.90;;;;;;4970865;28;20441;-80
2021/04/08 09:09:48;;;;;;;8.20;2.87;;;5.90;92.60;;;;;;4953263;28;20489;-81
2021/04/08 09:12:17;;;;;;;8.13;3.20;;;5.90;92.30;;;;;;4984421;28;20532;-80
2021/04/08 09:14:45;;;;;;;4.67;2.93;;;5.80;92.60;;;;;;4973114;28;20511;-80
2021/04/08 09:17:11;;;;;;;4.03;3.00;;;6.20;91.80;;;;;;4969529;28;20448;-80
2021/04/08 09:19:38;;;;;;;6.53;2.90;;;6.50;87.60;;;;;;4971123;28;20452;-80
2021/04/08 09:22:09;;;;;;;4.10;3.10;;;6.10;87.20;;;;;;4974474;28;20485;-80
2021/04/08 09:24:43;;;;;;;4.70;2.80;;;6.20;90.80;;;;;;4971704;28;20607;-80
2021/04/08 09:27:11;;;;;;;4.40;3.07;;;6.00;89.00;;;;;;4956453;28;20811;-80
2021/04/08 09:29:38;;;;;;;3.23;2.70;;;6.40;88.70;;;;;;4974379;28;20456;-81
2021/04/08 09:32:26;;;;;;;6.17;3.50;;;6.90;86.70;;;;;;4953058;28;20444;-80
2021/04/08 09:35:04;;;;;;;3.70;3.00;;;6.80;90.00;;;;;;4961075;28;20446;-80
2021/04/08 09:37:45;;;;;;;4.83;2.97;;;6.90;89.40;;;;;;4974734;28;20820;-79
2021/04/08 09:40:42;;;;;;;4.93;3.03;;;6.90;89.30;;;;;;4950883;28;20540;-79
2021/04/08 09:43:12;;;;;;;3.47;3.17;;;5.90;90.20;;;;;;4954104;28;20893;-79
2021/04/08 09:45:55;;;;;;;3.77;2.70;;;6.00;91.60;;;;;;4963116;28;20440;-79
2021/04/08 09:48:24;;;;;;;5.23;3.27;;;6.30;90.70;;;;;;4965164;28;20476;-80
2021/04/08 09:51:01;;;;;;;3.20;2.90;;;6.40;90.30;;;;;;4955025;28;20444;-81
2021/04/08 09:53:57;;;;;;;3.13;2.60;;;6.30;88.40;;;;;;4970365;28;20448;-81
2021/04/08 09:56:55;;;;;;;4.30;2.47;;;6.10;87.00;;;;;;4971434;28;20992;-81
2021/04/08 09:59:22;;;;;;;5.13;2.77;;;5.70;87.30;;;;;;4955992;28;20859;-81
2021/04/08 10:01:49;;;;;;;8.70;2.93;;;5.70;89.20;;;;;;4972767;28;21009;-81
2021/04/08 10:04:25;;;;;;;3.27;2.80;;;5.70;90.80;;;;;;4969544;28;20449;-82
2021/04/08 10:07:05;;;;;;;3.07;2.80;;;6.00;90.30;;;;;;4942463;28;20502;-81
2021/04/08 10:09:32;;;;;;;4.70;3.00;;;5.90;88.80;;;;;;4971412;28;20518;-82
2021/04/08 10:11:58;;;;;;;2.50;2.30;;;5.90;89.70;;;;;;4968642;28;20440;-81
2021/04/08 10:14:31;;;;;;;2.77;2.57;;;5.90;89.80;;;;;;4988107;28;20609;-82
2021/04/08 10:17:05;;;;;;;6.70;3.43;;;5.80;88.90;;;;;;4970996;28;20472;-81
2021/04/08 10:19:40;;;;;;;5.03;3.20;;;6.00;89.50;;;;;;4956485;28;20445;-81
2021/04/08 10:22:09;;;;;;;3.40;3.10;;;6.50;88.10;;;;;;4971390;28;20546;-83
2021/04/08 10:24:41;;;;;;;4.40;3.40;;;7.10;85.90;;;;;;4953079;28;20453;-82
2021/04/08 10:27:18;;;;;;;3.10;2.70;;;7.50;83.00;;;;;;4957368;28;20815;-82
2021/04/08 10:29:45;;;;;;;4.07;2.87;;;7.30;83.20;;;;;;4956570;28;20559;-82
2021/04/08 10:32:11;;;;;;;2.53;2.33;;;7.90;82.60;;;;;;4969912;28;20854;-83
2021/04/08 10:34:39;;;;;;;3.73;3.00;;;8.00;78.40;;;;;;4970440;28;20460;-83
2021/04/08 10:37:06;;;;;;;3.37;2.67;;;8.00;78.10;;;;;;4956309;28;20520;-83
2021/04/08 10:39:34;;;;;;;4.87;2.50;;;7.40;79.50;;;;;;4971239;28;20453;-83
2021/04/08 10:42:02;;;;;;;5.80;3.07;;;6.90;80.10;;;;;;4957777;28;20827;-83
2021/04/08 10:44:29;;;;;;;4.10;2.77;;;7.10;83.60;;;;;;4969933;28;20544;-80
2021/04/08 10:47:00;;;;;;;3.97;2.63;;;7.10;82.20;;;;;;4958325;28;21249;-81
2021/04/08 10:49:34;;;;;;;2.87;2.67;;;7.40;80.50;;;;;;4962975;28;20485;-81
2021/04/08 10:52:08;;;;;;;3.43;2.63;;;7.10;82.70;;;;;;4962126;28;20441;-80
2021/04/08 10:54:37;;;;;;;3.87;2.90;;;7.40;81.30;;;;;;4974993;28;20600;-80
2021/04/08 10:57:04;;;;;;;2.60;2.40;;;7.20;80.10;;;;;;4975075;28;20442;-82
2021/04/08 10:59:36;;;;;;;3.30;3.10;;;6.70;80.90;;;;;;4971889;28;20536;-82
2021/04/08 11:02:20;;;;;;;3.10;2.80;;;6.70;83.20;;;;;;4970200;28;20826;-82
2021/04/08 11:04:47;;;;;;;5.90;2.63;;;6.70;81.90;;;;;;4969789;28;20442;-83
2021/04/08 11:07:12;;;;;;;3.03;2.83;;;6.60;81.50;;;;;;4951222;28;20444;-81
2021/04/08 11:09:38;;;;;;;3.03;2.50;;;6.60;81.20;;;;;;4954290;28;20797;-82
2021/04/08 11:12:17;;;;;;;2.63;2.40;;;6.60;83.00;;;;;;4969596;28;20205;-81
2021/04/08 11:14:49;;;;;;;2.90;2.60;;;6.80;82.50;;;;;;4976291;28;20939;-82
2021/04/08 11:17:15;;;;;;;3.13;2.60;;;6.90;83.20;;;;;;4971869;28;20437;-79
2021/04/08 11:19:42;;;;;;;3.43;2.47;;;7.40;80.90;;;;;;4984183;28;20822;-80
2021/04/08 11:22:18;;;;;;;3.73;2.80;;;7.50;79.40;;;;;;4974868;28;20460;-79
2021/04/08 11:24:45;;;;;;;4.87;2.50;;;7.20;77.40;;;;;;4962357;28;20463;-79
2021/04/08 11:27:11;;;;;;;3.67;2.43;;;7.20;78.80;;;;;;4957388;28;20941;-80
2021/04/08 11:29:38;;;;;;;3.70;2.60;;;7.30;79.30;;;;;;4958168;28;20454;-80
2021/04/08 11:32:05;;;;;;;4.60;2.90;;;8.00;78.60;;;;;;4953957;28;20189;-81
2021/04/08 11:34:46;;;;;;;2.53;2.33;;;8.80;76.20;;;;;;4970076;28;20440;-80
2021/04/08 11:37:14;;;;;;;5.87;2.90;;;8.60;72.60;;;;;;4968404;28;20451;-80
2021/04/08 11:39:42;;;;;;;6.00;2.57;;;8.60;74.10;;;;;;4965374;28;20545;-80
2021/04/08 11:42:12;;;;;;;4.20;2.40;;;8.00;74.00;;;;;;4971034;28;20459;-79
2021/04/08 11:44:38;;;;;;;3.93;2.50;;;7.50;77.10;;;;;;4955330;28;20436;-80
2021/04/08 11:47:12;;;;;;;6.23;2.70;;;7.70;76.80;;;;;;4955268;28;21066;-81
2021/04/08 11:49:46;;;;;;;4.47;2.80;;;7.50;76.70;;;;;;4952439;28;20667;-80
2021/04/08 11:52:14;;;;;;;3.20;2.57;;;7.30;77.30;;;;;;4966781;28;20451;-80
2021/04/08 11:55:16;;;;;;;4.10;2.87;;;7.20;78.00;;;;;;4964943;28;20520;-80
2021/04/08 11:57:54;;;;;;;2.90;2.57;;;7.70;76.90;;;;;;4882119;28;20457;-81
2021/04/08 12:00:27;;;;;;;4.73;2.53;;;8.20;72.80;;;;;;4969796;28;20446;-80
2021/04/08 12:02:52;;;;;;;4.63;3.37;;;8.00;72.50;;;;;;4973615;28;20470;-80
2021/04/08 12:05:18;;;;;;;5.40;2.40;;;7.60;73.40;;;;;;4959279;28;20803;-80
2021/04/08 12:07:46;;;;;;;4.27;2.27;;;7.90;72.30;;;;;;4971303;28;20313;-80
2021/04/08 12:10:22;;;;;;;6.17;2.60;;;7.90;68.50;;;;;;4953721;28;20712;-80
2021/04/08 12:12:56;;;;;;;6.03;2.53;;;7.60;67.20;;;;;;4963093;28;20442;-81
2021/04/08 12:15:55;;;;;;;3.70;3.03;;;7.50;69.20;;;;;;4969070;28;20549;-80
2021/04/08 12:18:25;;;;;;;5.73;3.70;;;8.00;67.90;;;;;;4911372;28;20449;-80
2021/04/08 12:20:54;;;;;;;2.20;1.90;;;9.10;68.80;;;;;;4960904;28;20429;-79
2021/04/08 12:23:23;;;;;;;4.23;3.37;;;8.80;63.00;;;;;;4964419;28;20475;-80
2021/04/08 12:25:55;;;;;;;3.33;2.70;;;9.20;62.30;;;;;;4964818;28;20451;-81
2021/04/08 12:28:23;;;;;;;3.30;2.00;;;9.10;56.90;;;;;;4953294;28;20509;-80
2021/04/08 12:31:02;;;;;;;5.93;3.30;;;8.90;56.00;;;;;;4967228;28;20922;-80
2021/04/08 12:33:30;;;;;;;6.47;3.70;;;9.20;61.60;;;;;;4970076;28;20802;-82
2021/04/08 12:36:03;;;;;;;2.73;2.53;;;9.00;60.10;;;;;;4966181;28;20747;-81
2021/04/08 12:38:29;;;;;;;2.90;2.60;;;8.80;59.80;;;;;;4971436;28;20875;-81
2021/04/08 12:40:56;;;;;;;4.40;1.83;;;9.30;59.30;;;;;;4966815;28;20443;-80
2021/04/08 12:43:22;;;;;;;3.13;1.97;;;8.60;57.80;;;;;;4967128;28;20804;-80
2021/04/08 12:45:48;;;;;;;3.90;2.17;;;8.40;56.40;;;;;;4966097;28;20811;-80
2021/04/08 12:48:14;;;;;;;2.93;2.57;;;8.40;57.40;;;;;;4964955;28;20484;-80
2021/04/08 12:50:42;;;;;;;2.73;2.53;;;8.80;57.50;;;;;;4966151;28;20962;-80
2021/04/08 12:53:08;;;;;;;4.47;3.10;;;9.00;57.90;;;;;;4966724;28;20198;-80
2021/04/08 12:55:35;;;;;;;2.77;2.33;;;9.10;60.30;;;;;;4963708;28;21089;-80
2021/04/08 12:58:00;;;;;;;3.03;2.40;;;9.90;57.30;;;;;;4951730;28;20894;-80
2021/04/08 13:00:26;;;;;;;4.40;2.90;;;10.40;54.50;;;;;;4967687;28;21864;-80
2021/04/08 13:02:53;;;;;;;3.17;2.80;;;10.40;54.20;;;;;;4969710;28;20231;-81
2021/04/08 13:05:21;;;;;;;2.93;2.60;;;11.20;53.20;;;;;;4970957;28;21010;-79
2021/04/08 13:07:50;;;;;;;4.50;3.20;;;11.80;48.10;;;;;;4953626;28;20830;-81
2021/04/08 13:10:16;;;;;;;3.40;2.87;;;11.20;47.50;;;;;;4962704;28;20449;-79
2021/04/08 13:12:42;;;;;;;4.40;2.60;;;11.20;49.70;;;;;;4954153;28;20481;-79
2021/04/08 13:15:10;;;;;;;2.80;2.60;;;11.20;50.10;;;;;;4969050;28;20440;-79